createdAt,value
2023-01-30T00:01:15.143Z,38.92
2023-01-30T00:03:42.618Z,31.58
2023-01-30T00:06:11.119Z,31.77
2023-01-30T00:08:38.708Z,32.63
2023-01-30T00:11:10.082Z,33.17
2023-01-30T00:13:39.172Z,30.75
2023-01-30T00:16:07.429Z,33.17
2023-01-30T00:18:34.883Z,32.17
2023-01-30T00:21:05.362Z,34.35
2023-01-30T00:23:35.260Z,33.25
2023-01-30T00:26:04.617Z,34.58
2023-01-30T00:28:32.423Z,34.80
2023-01-30T00:31:00.131Z,31.65
2023-01-30T00:33:27.932Z,29.43
2023-01-30T00:35:57.459Z,27.53
2023-01-30T00:38:25.650Z,29.98
2023-01-30T00:40:53.017Z,31.48
2023-01-30T00:43:39.832Z,32.30
2023-01-30T00:46:44.961Z,31.17
2023-01-30T00:49:12.705Z,32.42
2023-01-30T00:51:40.150Z,31.60
2023-01-30T00:54:07.719Z,27.15
2023-01-30T00:56:35.101Z,28.83
2023-01-30T00:59:02.575Z,21.98
2023-01-30T01:01:29.985Z,18.35
2023-01-30T01:03:57.451Z,17.17
2023-01-30T01:06:24.941Z,17.98
2023-01-30T01:08:52.453Z,17.02
2023-01-30T01:11:25.874Z,16.67
2023-01-30T01:13:59.933Z,16.58
2023-01-30T01:16:30.786Z,17.88
2023-01-30T01:18:59.686Z,18.15
2023-01-30T01:21:27.625Z,18.35
2023-01-30T01:23:59.644Z,18.45
2023-01-30T01:26:27.405Z,22.05
2023-01-30T01:28:56.895Z,15.80
2023-01-30T01:31:25.667Z,16.23
2023-01-30T01:33:53.190Z,13.52
2023-01-30T01:36:49.670Z,14.18
2023-01-30T01:39:10.044Z,13.20
2023-01-30T01:41:37.424Z,12.50
2023-01-30T01:44:10.147Z,11.70
2023-01-30T01:46:48.591Z,10.95
2023-01-30T01:49:29.008Z,11.68
2023-01-30T01:52:07.840Z,13.07
2023-01-30T01:54:47.298Z,11.40
2023-01-30T01:57:36.325Z,10.35
2023-01-30T02:00:15.364Z,10.00
2023-01-30T02:02:49.497Z,31.73
2023-01-30T02:05:20.602Z,16.92
2023-01-30T02:07:59.446Z,11.65
2023-01-30T02:10:48.783Z,9.88
2023-01-30T02:13:17.082Z,9.45
2023-01-30T02:15:45.210Z,11.00
2023-01-30T02:18:14.889Z,8.88
2023-01-30T02:21:09.700Z,11.15
2023-01-30T02:24:21.509Z,11.38
2023-01-30T02:27:14.458Z,11.32
2023-01-30T02:30:29.811Z,10.77
2023-01-30T02:33:15.105Z,10.57
2023-01-30T02:36:12.391Z,9.50
2023-01-30T02:39:02.405Z,10.50
2023-01-30T02:41:57.303Z,9.73
2023-01-30T02:44:45.740Z,9.57
2023-01-30T02:47:27.464Z,9.68
2023-01-30T02:50:28.341Z,9.43
2023-01-30T02:52:57.725Z,11.13
2023-01-30T02:55:28.820Z,11.95
2023-01-30T02:57:57.456Z,9.60
2023-01-30T03:01:05.868Z,9.95
2023-01-30T03:03:57.613Z,10.38
2023-01-30T03:07:03.987Z,10.10
2023-01-30T03:10:00.754Z,11.43
2023-01-30T03:13:05.492Z,11.70
2023-01-30T03:16:11.603Z,10.77
2023-01-30T03:18:44.896Z,11.98
2023-01-30T03:21:17.252Z,12.20
2023-01-30T03:23:46.927Z,10.73
2023-01-30T03:26:22.689Z,12.60
2023-01-30T03:28:53.018Z,17.23
2023-01-30T03:31:21.192Z,12.25
2023-01-30T03:33:49.885Z,11.07
2023-01-30T03:36:17.993Z,15.10
2023-01-30T03:38:45.922Z,11.85
2023-01-30T03:41:13.440Z,12.55
2023-01-30T03:43:41.045Z,12.60
2023-01-30T03:46:08.495Z,11.95
2023-01-30T03:48:36.034Z,12.77
2023-01-30T03:51:03.519Z,13.48
2023-01-30T03:53:30.890Z,12.07
2023-01-30T03:55:59.137Z,11.57
2023-01-30T03:58:31.343Z,13.35
2023-01-30T04:01:01.505Z,13.60
2023-01-30T04:03:29.056Z,12.15
2023-01-30T04:05:59.599Z,16.05
2023-01-30T04:08:27.065Z,13.65
2023-01-30T04:10:54.592Z,12.75
2023-01-30T04:13:24.087Z,12.43
2023-01-30T04:15:52.484Z,13.88
2023-01-30T04:18:45.607Z,11.80
2023-01-30T04:21:21.094Z,14.82
2023-01-30T04:26:16.380Z,14.43
2023-01-30T04:28:44.599Z,15.20
2023-01-30T04:31:14.346Z,14.18
2023-01-30T04:33:53.158Z,16.00
2023-01-30T04:36:20.640Z,24.08
2023-01-30T04:38:48.030Z,23.85
2023-01-30T04:41:18.194Z,19.50
2023-01-30T04:43:45.817Z,21.17
2023-01-30T04:46:31.723Z,19.50
2023-01-30T04:48:59.184Z,21.83
2023-01-30T04:51:27.056Z,21.95
2023-01-30T04:53:54.488Z,22.20
2023-01-30T04:56:21.962Z,20.35
2023-01-30T04:58:50.811Z,19.33
2023-01-30T05:01:25.940Z,20.55
2023-01-30T05:03:54.499Z,20.90
2023-01-30T05:06:23.144Z,21.15
2023-01-30T05:11:20.376Z,16.02
2023-01-30T05:16:17.692Z,16.23
2023-01-30T05:18:45.945Z,16.42
2023-01-30T05:21:17.459Z,17.00
2023-01-30T05:23:45.274Z,17.42
2023-01-30T05:26:16.132Z,17.70
2023-01-30T05:28:43.772Z,16.13
2023-01-30T05:31:14.411Z,13.30
2023-01-30T05:36:16.200Z,12.77
2023-01-30T05:38:44.965Z,16.50
2023-01-30T05:43:41.949Z,30.38
2023-01-30T05:46:11.993Z,24.60
2023-01-30T05:48:39.883Z,21.27
2023-01-30T05:51:14.781Z,23.60
2023-01-30T05:53:42.099Z,21.10
2023-01-30T05:56:09.616Z,19.02
2023-01-30T05:58:36.945Z,17.20
2023-01-30T06:01:09.609Z,19.25
2023-01-30T06:03:37.581Z,26.95
2023-01-30T06:06:06.408Z,25.70
2023-01-30T06:08:34.236Z,25.55
2023-01-30T06:11:09.381Z,26.67
2023-01-30T06:13:37.470Z,22.58
2023-01-30T06:16:06.937Z,20.50
2023-01-30T06:18:35.380Z,17.50
2023-01-30T06:21:02.779Z,19.02
2023-01-30T06:23:30.337Z,18.30
2023-01-30T06:25:57.838Z,15.88
2023-01-30T06:28:26.627Z,15.27
2023-01-30T06:30:54.695Z,15.15
2023-01-30T06:33:22.233Z,16.10
2023-01-30T06:35:51.560Z,16.30
2023-01-30T06:38:20.754Z,15.60
2023-01-30T06:40:50.275Z,17.33
2023-01-30T06:43:18.507Z,18.70
2023-01-30T06:45:45.869Z,17.83
2023-01-30T06:48:13.401Z,17.02
2023-01-30T06:50:40.735Z,25.33
2023-01-30T06:53:08.746Z,38.20
2023-01-30T06:55:36.584Z,27.02
2023-01-30T06:58:09.942Z,27.98
2023-01-30T07:00:40.047Z,49.13
2023-01-30T07:03:16.489Z,31.00
2023-01-30T07:05:46.082Z,22.27
2023-01-30T07:08:15.764Z,22.25
2023-01-30T07:10:44.521Z,23.08
2023-01-30T07:13:12.709Z,22.10
2023-01-30T07:15:40.394Z,21.13
2023-01-30T07:18:08.178Z,22.97
2023-01-30T07:20:35.622Z,22.47
2023-01-30T07:23:03.886Z,21.55
2023-01-30T07:25:31.353Z,26.63
2023-01-30T07:28:01.552Z,42.55
2023-01-30T07:30:32.968Z,36.05
2023-01-30T07:33:01.063Z,28.92
2023-01-30T07:35:34.725Z,28.25
2023-01-30T07:38:02.183Z,29.05
2023-01-30T07:40:29.580Z,30.50
2023-01-30T07:43:16.143Z,29.30
2023-01-30T07:45:48.775Z,29.10
2023-01-30T07:48:19.257Z,26.70
2023-01-30T07:50:47.319Z,22.13
2023-01-30T07:53:18.613Z,20.90
2023-01-30T07:55:46.210Z,28.77
2023-01-30T07:58:15.967Z,25.33
2023-01-30T08:00:44.105Z,32.08
2023-01-30T08:03:17.114Z,32.40
2023-01-30T08:05:47.059Z,33.58
2023-01-30T08:08:15.102Z,33.10
2023-01-30T08:10:43.366Z,37.53
2023-01-30T08:13:10.776Z,39.20
2023-01-30T08:15:38.187Z,30.75
2023-01-30T08:18:07.413Z,32.15
2023-01-30T08:20:36.359Z,30.98
2023-01-30T08:23:04.417Z,35.25
2023-01-30T08:25:31.820Z,28.67
2023-01-30T08:28:00.435Z,29.45
2023-01-30T08:30:30.353Z,30.27
2023-01-30T08:32:58.503Z,33.22
2023-01-30T08:35:25.968Z,32.28
2023-01-30T08:37:53.284Z,49.28
2023-01-30T08:40:20.973Z,43.63
2023-01-30T08:42:48.537Z,29.67
2023-01-30T08:45:16.002Z,30.80
2023-01-30T08:47:43.393Z,31.77
2023-01-30T08:50:11.291Z,31.30
2023-01-30T08:52:38.706Z,37.55
2023-01-30T08:55:06.473Z,35.42
2023-01-30T08:57:33.847Z,37.75
2023-01-30T09:00:01.394Z,32.42
2023-01-30T09:02:28.876Z,40.77
2023-01-30T09:04:56.150Z,31.00
2023-01-30T09:07:23.688Z,32.00
2023-01-30T09:09:51.030Z,33.45
2023-01-30T09:12:18.455Z,33.50
2023-01-30T09:14:45.742Z,33.58
2023-01-30T09:17:13.656Z,33.63
2023-01-30T09:19:40.938Z,43.83
2023-01-30T09:22:08.487Z,39.38
2023-01-30T09:24:36.153Z,44.83
2023-01-30T09:27:03.511Z,36.30
2023-01-30T09:29:31.058Z,35.38
2023-01-30T09:31:58.911Z,31.30
2023-01-30T09:34:28.766Z,31.27
2023-01-30T09:37:04.759Z,31.25
2023-01-30T09:39:32.454Z,30.92
2023-01-30T09:42:06.128Z,36.28
2023-01-30T09:45:11.029Z,27.88
2023-01-30T09:48:10.244Z,25.67
2023-01-30T09:50:53.805Z,26.63
2023-01-30T09:53:34.588Z,23.55
2023-01-30T09:56:02.140Z,23.65
2023-01-30T09:59:01.767Z,25.42
2023-01-30T10:02:17.257Z,27.95
2023-01-30T10:05:00.555Z,24.73
2023-01-30T10:07:43.471Z,25.42
2023-01-30T10:10:47.332Z,26.83
2023-01-30T10:13:48.628Z,29.02
2023-01-30T10:16:54.751Z,29.13
2023-01-30T10:19:35.984Z,26.77
2023-01-30T10:22:43.877Z,28.58
2023-01-30T10:25:32.751Z,24.60
2023-01-30T10:28:29.045Z,28.45
2023-01-30T10:31:07.161Z,23.17
2023-01-30T10:33:57.879Z,24.33
2023-01-30T10:36:48.243Z,23.80
2023-01-30T10:39:28.385Z,22.23
2023-01-30T10:42:08.438Z,27.92
2023-01-30T10:44:38.054Z,28.98
2023-01-30T10:47:47.295Z,27.33
2023-01-30T10:50:25.980Z,25.27
2023-01-30T10:53:12.501Z,20.00
2023-01-30T10:55:50.114Z,20.35
2023-01-30T10:58:52.113Z,21.13
2023-01-30T11:01:27.333Z,22.67
2023-01-30T11:04:04.481Z,21.75
2023-01-30T11:06:35.227Z,17.58
2023-01-30T11:09:04.051Z,16.27
2023-01-30T11:11:55.605Z,15.82
2023-01-30T11:14:23.123Z,17.00
2023-01-30T11:16:54.094Z,12.93
2023-01-30T11:19:32.517Z,15.25
2023-01-30T11:24:43.688Z,18.75
2023-01-30T11:27:25.410Z,19.50
2023-01-30T11:30:24.592Z,18.98
2023-01-30T11:33:04.547Z,21.42
2023-01-30T11:35:34.663Z,21.05
2023-01-30T11:38:22.317Z,19.92
2023-01-30T11:40:49.720Z,23.23
2023-01-30T11:43:17.143Z,22.40
2023-01-30T11:45:50.451Z,20.55
2023-01-30T11:48:33.934Z,21.33
2023-01-30T11:51:11.523Z,20.27
2023-01-30T11:53:50.997Z,20.58
2023-01-30T11:56:34.731Z,21.17
2023-01-30T11:59:22.248Z,23.02
2023-01-30T12:01:50.138Z,22.67
2023-01-30T12:04:18.572Z,23.65
2023-01-30T12:06:45.964Z,19.88
2023-01-30T12:09:34.688Z,22.50
2023-01-30T12:12:02.213Z,21.63
2023-01-30T12:14:49.375Z,21.15
2023-01-30T12:17:31.840Z,20.33
2023-01-30T12:20:28.113Z,19.95
2023-01-30T12:23:15.626Z,24.25
2023-01-30T12:26:04.353Z,24.37
2023-01-30T12:28:53.615Z,21.40
2023-01-30T12:32:14.649Z,24.30
2023-01-30T12:34:45.570Z,21.52
2023-01-30T12:38:07.000Z,25.63
2023-01-30T12:40:48.562Z,22.70
2023-01-30T12:43:29.265Z,24.30
2023-01-30T12:46:23.016Z,24.08
2023-01-30T12:49:24.945Z,24.08
2023-01-30T12:52:25.326Z,23.73
2023-01-30T12:55:18.867Z,24.33
2023-01-30T12:58:20.429Z,23.35
2023-01-30T13:01:27.947Z,20.58
2023-01-30T13:04:07.346Z,19.33
2023-01-30T13:07:04.182Z,21.48
2023-01-30T13:09:56.290Z,22.20
2023-01-30T13:12:34.024Z,23.85
2023-01-30T13:15:26.551Z,15.30
2023-01-30T13:18:18.474Z,14.38
2023-01-30T13:21:15.748Z,14.43
2023-01-30T13:24:22.222Z,15.25
2023-01-30T13:26:52.160Z,15.07
2023-01-30T13:29:38.816Z,12.95
2023-01-30T13:32:30.104Z,14.45
2023-01-30T13:35:00.079Z,16.40
2023-01-30T13:37:28.894Z,16.52
2023-01-30T13:40:01.139Z,16.10
2023-01-30T13:43:15.185Z,17.48
2023-01-30T13:45:47.289Z,17.30
2023-01-30T13:48:48.476Z,16.02
2023-01-30T13:51:47.123Z,17.08
2023-01-30T13:55:01.108Z,14.00
2023-01-30T13:57:33.478Z,17.35
2023-01-30T14:00:24.814Z,19.70
2023-01-30T14:03:07.260Z,14.43
2023-01-30T14:06:00.976Z,18.83
2023-01-30T14:08:46.832Z,16.13
2023-01-30T14:11:32.412Z,17.05
2023-01-30T14:14:18.477Z,16.70
2023-01-30T14:16:51.014Z,19.70
2023-01-30T14:19:35.934Z,18.35
2023-01-30T14:22:19.880Z,15.82
2023-01-30T14:25:22.431Z,18.00
2023-01-30T14:27:55.609Z,19.48
2023-01-30T14:30:31.990Z,14.80
2023-01-30T14:33:02.211Z,19.00
2023-01-30T14:35:32.919Z,18.00
2023-01-30T14:38:20.111Z,18.20
2023-01-30T14:41:02.241Z,19.17
2023-01-30T14:43:41.607Z,26.80
2023-01-30T14:46:17.960Z,17.17
2023-01-30T14:48:49.985Z,19.48
2023-01-30T14:51:43.531Z,22.23
2023-01-30T14:54:14.569Z,20.05
2023-01-30T14:56:58.676Z,16.23
2023-01-30T14:59:31.489Z,20.95
2023-01-30T15:02:14.625Z,22.35
2023-01-30T15:04:57.482Z,24.42
2023-01-30T15:07:38.053Z,14.52
2023-01-30T15:10:44.699Z,31.08
2023-01-30T15:13:35.948Z,28.85
2023-01-30T15:16:21.080Z,19.33
2023-01-30T15:19:49.290Z,24.05
2023-01-30T15:22:41.063Z,21.63
2023-01-30T15:25:17.612Z,24.52
2023-01-30T15:28:14.835Z,26.77
2023-01-30T15:31:10.973Z,23.23
2023-01-30T15:33:47.650Z,22.38
2023-01-30T15:36:27.902Z,34.60
2023-01-30T15:39:19.909Z,24.45
2023-01-30T15:41:48.295Z,21.70
2023-01-30T15:44:43.725Z,22.30
2023-01-30T15:47:44.541Z,21.80
2023-01-30T15:50:12.244Z,21.25
2023-01-30T15:52:46.420Z,19.03
2023-01-30T15:55:27.841Z,20.90
2023-01-30T15:58:11.015Z,22.02
2023-01-30T16:00:46.583Z,35.45
2023-01-30T16:03:20.342Z,42.80
2023-01-30T16:05:56.721Z,47.70
2023-01-30T16:08:33.930Z,59.42
2023-01-30T16:11:02.023Z,58.45
2023-01-30T16:13:30.431Z,74.80
2023-01-30T16:16:10.486Z,64.15
2023-01-30T16:18:51.348Z,57.58
2023-01-30T16:21:40.070Z,51.88
2023-01-30T16:24:26.595Z,60.13
2023-01-30T16:27:02.680Z,62.15
2023-01-30T16:29:34.736Z,60.10
2023-01-30T16:32:02.350Z,74.60
2023-01-30T16:34:37.239Z,56.40
2023-01-30T16:37:24.955Z,55.35
2023-01-30T16:40:23.837Z,61.60
2023-01-30T16:43:25.709Z,72.15
2023-01-30T16:45:53.168Z,76.68
2023-01-30T16:48:22.719Z,79.20
2023-01-30T16:51:00.221Z,82.85
2023-01-30T16:53:33.309Z,83.13
2023-01-30T16:56:09.967Z,61.22
2023-01-30T16:58:38.607Z,93.53
2023-01-30T17:03:41.231Z,53.55
2023-01-30T17:06:46.258Z,58.58
2023-01-30T17:09:38.682Z,48.17
2023-01-30T17:12:36.267Z,44.97
2023-01-30T17:15:09.808Z,42.55
2023-01-30T17:17:37.313Z,44.25
2023-01-30T17:20:05.595Z,39.35
2023-01-30T17:22:33.859Z,52.17
2023-01-30T17:25:14.537Z,36.22
2023-01-30T17:27:41.910Z,44.08
2023-01-30T17:30:15.792Z,36.80
2023-01-30T17:32:43.171Z,39.42
2023-01-30T17:35:12.581Z,28.52
2023-01-30T17:37:40.103Z,28.60
2023-01-30T17:40:17.550Z,31.02
2023-01-30T17:42:46.505Z,31.07
2023-01-30T17:45:14.181Z,32.83
2023-01-30T17:47:41.562Z,34.70
2023-01-30T17:50:13.932Z,57.05
2023-01-30T17:52:41.885Z,46.70
2023-01-30T17:55:15.422Z,67.38
2023-01-30T17:57:48.037Z,73.97
2023-01-30T18:00:21.360Z,88.28
2023-01-30T18:02:49.620Z,107.13
2023-01-30T18:05:17.158Z,117.85
2023-01-30T18:07:44.767Z,124.32
2023-01-30T18:10:16.983Z,119.97
2023-01-30T18:12:45.519Z,120.88
2023-01-30T18:15:18.192Z,120.43
2023-01-30T18:17:48.963Z,111.35
2023-01-30T18:20:20.181Z,113.25
2023-01-30T18:22:47.770Z,97.75
2023-01-30T18:25:17.408Z,104.45
2023-01-30T18:27:47.294Z,106.07
2023-01-30T18:30:17.705Z,109.18
2023-01-30T18:32:53.648Z,112.07
2023-01-30T18:35:23.245Z,94.00
2023-01-30T18:37:51.144Z,98.55
2023-01-30T18:40:20.703Z,92.00
2023-01-30T18:42:48.354Z,99.45
2023-01-30T18:45:15.893Z,90.40
2023-01-30T18:47:43.295Z,99.82
2023-01-30T18:50:11.667Z,103.32
2023-01-30T18:52:39.010Z,97.85
2023-01-30T18:55:06.824Z,99.90
2023-01-30T18:57:34.261Z,104.70
2023-01-30T19:00:01.661Z,109.35
2023-01-30T19:02:28.973Z,123.78
2023-01-30T19:04:56.307Z,161.32
2023-01-30T19:07:23.675Z,215.18
2023-01-30T19:09:51.101Z,237.35
2023-01-30T19:12:36.980Z,227.05
2023-01-30T19:15:06.032Z,211.52
2023-01-30T19:17:33.394Z,195.00
2023-01-30T19:20:02.478Z,182.98
2023-01-30T19:22:29.815Z,168.88
2023-01-30T19:24:57.124Z,151.50
2023-01-30T19:27:25.906Z,149.05
2023-01-30T19:29:53.291Z,145.60
2023-01-30T19:32:20.669Z,143.02
2023-01-30T19:34:49.953Z,125.82
2023-01-30T19:37:18.102Z,113.50
2023-01-30T19:39:45.449Z,115.10
2023-01-30T19:42:12.998Z,111.50
2023-01-30T19:44:41.072Z,106.78
2023-01-30T19:47:09.389Z,105.57
2023-01-30T19:49:37.552Z,107.20
2023-01-30T19:52:05.338Z,115.25
2023-01-30T19:54:32.829Z,117.80
2023-01-30T19:57:00.234Z,128.18
2023-01-30T19:59:27.905Z,127.70
2023-01-30T20:01:55.409Z,135.20
2023-01-30T20:04:22.895Z,123.60
2023-01-30T20:06:50.260Z,93.55
2023-01-30T20:09:17.806Z,82.05
2023-01-30T20:11:45.410Z,74.82
2023-01-30T20:14:13.532Z,79.55
2023-01-30T20:16:41.003Z,82.05
2023-01-30T20:19:15.021Z,74.70
2023-01-30T20:21:43.887Z,59.20
2023-01-30T20:24:13.629Z,66.07
2023-01-30T20:26:41.899Z,58.63
2023-01-30T20:29:10.948Z,63.13
2023-01-30T20:31:39.634Z,68.10
2023-01-30T20:34:11.807Z,67.95
2023-01-30T20:36:39.326Z,94.97
2023-01-30T20:39:07.888Z,77.55
2023-01-30T20:41:36.593Z,70.22
2023-01-30T20:44:06.799Z,76.55
2023-01-30T20:46:43.869Z,48.45
2023-01-30T20:49:18.614Z,54.65
2023-01-30T20:51:48.868Z,41.22
2023-01-30T20:54:19.333Z,34.22
2023-01-30T20:56:50.821Z,34.25
2023-01-30T20:59:24.168Z,35.38
2023-01-30T21:01:52.867Z,33.95
2023-01-30T21:06:49.207Z,29.92
2023-01-30T21:09:22.787Z,28.23
2023-01-30T21:11:53.026Z,26.27
2023-01-30T21:14:21.062Z,25.80
2023-01-30T21:16:50.142Z,23.65
2023-01-30T21:19:18.275Z,27.27
2023-01-30T21:21:53.969Z,28.77
2023-01-30T21:24:26.708Z,23.33
2023-01-30T21:26:55.878Z,23.42
2023-01-30T21:29:26.031Z,20.13
2023-01-30T21:31:55.659Z,19.92
2023-01-30T21:34:23.636Z,16.63
2023-01-30T21:37:09.441Z,16.38
2023-01-30T21:39:55.269Z,15.75
2023-01-30T21:42:41.325Z,14.68
2023-01-30T21:45:08.964Z,18.70
2023-01-30T21:47:36.995Z,17.02
2023-01-30T21:50:05.191Z,14.70
2023-01-30T21:52:33.352Z,17.15
2023-01-30T21:55:00.856Z,16.35
2023-01-30T21:57:28.273Z,18.88
2023-01-30T21:59:55.721Z,18.70
2023-01-30T22:02:23.183Z,22.00
2023-01-30T22:04:50.525Z,38.75
2023-01-30T22:07:17.936Z,36.83
2023-01-30T22:09:45.283Z,47.03
2023-01-30T22:12:12.578Z,63.25
2023-01-30T22:14:40.102Z,66.70
2023-01-30T22:17:07.458Z,65.53
2023-01-30T22:19:38.414Z,60.67
2023-01-30T22:22:06.169Z,57.47
2023-01-30T22:24:33.560Z,66.70
2023-01-30T22:27:00.910Z,40.90
2023-01-30T22:29:29.213Z,31.95
2023-01-30T22:31:56.719Z,23.52
2023-01-30T22:34:24.107Z,25.10
2023-01-30T22:36:51.836Z,23.92
2023-01-30T22:39:20.004Z,20.63
2023-01-30T22:41:47.337Z,18.02
2023-01-30T22:44:14.709Z,19.02
2023-01-30T22:46:42.299Z,20.30
2023-01-30T22:49:10.643Z,17.13
2023-01-30T22:51:41.050Z,14.98
2023-01-30T22:54:15.926Z,17.20
2023-01-30T22:56:48.641Z,19.27
2023-01-30T22:59:16.246Z,20.90
2023-01-30T23:01:50.773Z,18.10
2023-01-30T23:04:22.391Z,21.08
2023-01-30T23:06:51.897Z,19.42
2023-01-30T23:09:23.250Z,21.17
2023-01-30T23:12:13.831Z,19.33
2023-01-30T23:14:42.806Z,20.00
2023-01-30T23:17:29.375Z,23.05
2023-01-30T23:19:57.063Z,20.15
2023-01-30T23:22:24.606Z,21.27
2023-01-30T23:24:52.625Z,22.60
2023-01-30T23:27:21.274Z,23.55
2023-01-30T23:32:19.846Z,23.20
2023-01-30T23:34:48.390Z,25.50
2023-01-30T23:37:16.874Z,24.33
2023-01-30T23:39:45.242Z,19.75
2023-01-30T23:42:12.615Z,19.55
2023-01-30T23:44:40.214Z,20.67
2023-01-30T23:47:07.644Z,22.25
2023-01-30T23:49:35.429Z,20.90
2023-01-30T23:52:02.766Z,19.60
2023-01-30T23:54:30.176Z,19.13
2023-01-30T23:56:57.580Z,18.33
2023-01-30T23:59:24.903Z,19.35
